createdAt,value
2023-01-27T00:00:39.515Z,39.42
2023-01-27T00:03:06.802Z,36.72
2023-01-27T00:05:33.611Z,30.45
2023-01-27T00:08:00.266Z,34.38
2023-01-27T00:10:27.392Z,36.28
2023-01-27T00:13:12.865Z,36.28
2023-01-27T00:15:40.218Z,34.35
2023-01-27T00:18:07.452Z,37.30
2023-01-27T00:20:52.820Z,35.67
2023-01-27T00:23:40.861Z,37.17
2023-01-27T00:26:10.743Z,38.53
2023-01-27T00:28:39.025Z,44.55
2023-01-27T00:31:08.149Z,41.85
2023-01-27T00:33:35.025Z,47.55
2023-01-27T00:36:04.538Z,42.97
2023-01-27T00:38:33.571Z,43.47
2023-01-27T00:41:19.477Z,41.72
2023-01-27T00:43:47.533Z,42.67
2023-01-27T00:46:15.138Z,47.38
2023-01-27T00:48:41.968Z,42.38
2023-01-27T00:51:09.158Z,41.88
2023-01-27T00:53:35.985Z,50.47
2023-01-27T00:56:03.063Z,41.55
2023-01-27T00:58:30.026Z,46.22
2023-01-27T01:00:59.511Z,46.00
2023-01-27T01:03:31.541Z,48.45
2023-01-27T01:06:06.002Z,44.60
2023-01-27T01:08:34.112Z,50.28
2023-01-27T01:11:00.841Z,44.58
2023-01-27T01:13:28.584Z,49.97
2023-01-27T01:15:57.163Z,54.33
2023-01-27T01:18:25.318Z,47.10
2023-01-27T01:20:52.021Z,47.20
2023-01-27T01:23:18.676Z,47.60
2023-01-27T01:25:56.279Z,47.10
2023-01-27T01:28:23.853Z,54.47
2023-01-27T01:30:50.577Z,51.40
2023-01-27T01:33:17.945Z,51.22
2023-01-27T01:35:44.616Z,51.88
2023-01-27T01:38:11.542Z,51.53
2023-01-27T01:40:43.259Z,48.33
2023-01-27T01:43:17.808Z,56.05
2023-01-27T01:45:53.868Z,51.20
2023-01-27T01:48:20.570Z,49.78
2023-01-27T01:50:58.657Z,63.97
2023-01-27T01:53:34.678Z,64.20
2023-01-27T01:56:10.731Z,58.80
2023-01-27T01:58:37.993Z,61.70
2023-01-27T02:01:06.144Z,60.58
2023-01-27T02:03:35.164Z,56.90
2023-01-27T02:06:02.615Z,58.33
2023-01-27T02:08:35.068Z,62.17
2023-01-27T02:11:01.713Z,54.78
2023-01-27T02:13:28.342Z,71.80
2023-01-27T02:15:55.884Z,63.33
2023-01-27T02:18:22.910Z,68.90
2023-01-27T02:20:53.628Z,73.75
2023-01-27T02:23:54.444Z,71.50
2023-01-27T02:26:22.627Z,73.90
2023-01-27T02:28:58.810Z,78.43
2023-01-27T02:31:25.836Z,66.65
2023-01-27T02:33:57.384Z,70.20
2023-01-27T02:36:24.606Z,72.65
2023-01-27T02:38:53.651Z,76.70
2023-01-27T02:41:29.281Z,71.03
2023-01-27T02:43:56.152Z,76.68
2023-01-27T02:46:23.128Z,75.45
2023-01-27T02:48:49.866Z,68.20
2023-01-27T02:51:16.779Z,69.78
2023-01-27T02:53:43.487Z,75.82
2023-01-27T02:56:10.281Z,70.32
2023-01-27T02:58:37.341Z,75.43
2023-01-27T03:01:04.382Z,73.75
2023-01-27T03:03:31.114Z,84.47
2023-01-27T03:05:57.950Z,73.30
2023-01-27T03:08:24.761Z,77.53
2023-01-27T03:10:52.821Z,83.32
2023-01-27T03:13:23.989Z,79.72
2023-01-27T03:16:09.488Z,80.68
2023-01-27T03:18:36.906Z,82.00
2023-01-27T03:21:07.129Z,75.25
2023-01-27T03:23:34.454Z,76.88
2023-01-27T03:26:02.450Z,82.57
2023-01-27T03:28:29.121Z,73.97
2023-01-27T03:31:04.293Z,69.93
2023-01-27T03:33:31.158Z,71.05
2023-01-27T03:36:16.384Z,60.13
2023-01-27T03:39:01.787Z,75.40
2023-01-27T03:41:47.402Z,77.72
2023-01-27T03:44:32.949Z,78.85
2023-01-27T03:46:59.671Z,78.18
2023-01-27T03:49:26.390Z,74.88
2023-01-27T03:51:53.067Z,72.63
2023-01-27T03:54:19.805Z,62.13
2023-01-27T03:56:47.861Z,65.32
2023-01-27T03:59:14.896Z,66.32
2023-01-27T04:01:43.741Z,60.42
2023-01-27T04:04:30.253Z,56.08
2023-01-27T04:07:02.833Z,61.90
2023-01-27T04:09:35.778Z,50.72
2023-01-27T04:12:05.708Z,66.80
2023-01-27T04:14:35.078Z,52.17
2023-01-27T04:17:12.512Z,49.53
2023-01-27T04:19:39.749Z,57.10
2023-01-27T04:22:07.645Z,57.72
2023-01-27T04:24:34.465Z,48.53
2023-01-27T04:27:03.708Z,45.67
2023-01-27T04:29:34.868Z,55.28
2023-01-27T04:32:03.463Z,56.42
2023-01-27T04:34:30.480Z,58.95
2023-01-27T04:36:57.604Z,57.28
2023-01-27T04:39:24.614Z,54.35
2023-01-27T04:41:51.776Z,59.05
2023-01-27T04:44:21.629Z,48.90
2023-01-27T04:46:48.980Z,53.75
2023-01-27T04:49:15.999Z,44.85
2023-01-27T04:51:42.918Z,49.95
2023-01-27T04:54:09.629Z,46.08
2023-01-27T04:56:39.091Z,46.83
2023-01-27T04:59:10.163Z,46.25
2023-01-27T05:01:37.038Z,49.50
2023-01-27T05:04:04.013Z,48.25
2023-01-27T05:06:30.954Z,46.47
2023-01-27T05:08:57.740Z,45.13
2023-01-27T05:11:24.524Z,46.80
2023-01-27T05:13:51.251Z,46.60
2023-01-27T05:16:25.493Z,45.40
2023-01-27T05:18:53.147Z,47.63
2023-01-27T05:21:25.181Z,44.72
2023-01-27T05:23:51.974Z,47.50
2023-01-27T05:26:27.116Z,44.08
2023-01-27T05:28:56.511Z,46.53
2023-01-27T05:31:26.678Z,53.70
2023-01-27T05:33:55.210Z,52.63
2023-01-27T05:36:23.716Z,57.30
2023-01-27T05:38:50.876Z,55.72
2023-01-27T05:41:19.553Z,54.90
2023-01-27T05:43:47.795Z,59.20
2023-01-27T05:46:17.255Z,60.40
2023-01-27T05:48:46.799Z,55.78
2023-01-27T05:51:15.396Z,63.55
2023-01-27T05:53:43.507Z,51.22
2023-01-27T05:56:12.057Z,55.97
2023-01-27T05:58:39.060Z,51.45
2023-01-27T06:01:09.598Z,48.95
2023-01-27T06:03:36.647Z,57.70
2023-01-27T06:06:04.134Z,46.50
2023-01-27T06:08:31.210Z,52.85
2023-01-27T06:10:59.010Z,52.55
2023-01-27T06:13:26.600Z,48.45
2023-01-27T06:15:55.601Z,44.95
2023-01-27T06:18:23.538Z,40.72
2023-01-27T06:20:50.606Z,45.97
2023-01-27T06:23:18.140Z,44.28
2023-01-27T06:25:47.096Z,42.28
2023-01-27T06:28:28.214Z,44.25
2023-01-27T06:30:57.281Z,39.88
2023-01-27T06:33:24.084Z,45.63
2023-01-27T06:35:50.831Z,38.25
2023-01-27T06:38:17.574Z,34.58
2023-01-27T06:40:44.431Z,29.67
2023-01-27T06:43:14.788Z,38.03
2023-01-27T06:45:41.639Z,28.33
2023-01-27T06:48:09.079Z,35.05
2023-01-27T06:50:36.755Z,31.98
2023-01-27T06:53:07.183Z,34.45
2023-01-27T06:55:34.820Z,32.15
2023-01-27T06:58:02.668Z,27.02
2023-01-27T07:00:29.808Z,34.85
2023-01-27T07:02:56.998Z,31.05
2023-01-27T07:05:23.928Z,31.90
2023-01-27T07:07:50.728Z,31.60
2023-01-27T07:10:17.849Z,26.33
2023-01-27T07:12:44.756Z,27.38
2023-01-27T07:15:12.282Z,28.55
2023-01-27T07:17:39.209Z,28.60
2023-01-27T07:20:07.992Z,32.53
2023-01-27T07:22:34.735Z,33.78
2023-01-27T07:25:02.320Z,27.27
2023-01-27T07:27:29.644Z,25.92
2023-01-27T07:29:56.419Z,22.08
2023-01-27T07:32:23.070Z,31.17
2023-01-27T07:34:49.822Z,40.08
2023-01-27T07:37:16.944Z,27.63
2023-01-27T07:39:43.684Z,28.55
2023-01-27T07:42:10.441Z,30.55
2023-01-27T07:44:37.256Z,27.88
2023-01-27T07:47:03.968Z,21.67
2023-01-27T07:49:30.695Z,27.02
2023-01-27T07:51:57.622Z,30.63
2023-01-27T07:54:25.138Z,30.27
2023-01-27T07:56:51.874Z,26.88
2023-01-27T07:59:18.571Z,21.75
2023-01-27T08:01:47.930Z,23.55
2023-01-27T08:04:15.061Z,19.42
2023-01-27T08:06:41.789Z,21.15
2023-01-27T08:09:08.489Z,24.30
2023-01-27T08:11:35.374Z,22.88
2023-01-27T08:14:02.409Z,17.98
2023-01-27T08:16:29.392Z,19.58
2023-01-27T08:18:56.658Z,18.50
2023-01-27T08:21:25.222Z,15.50
2023-01-27T08:23:53.760Z,20.85
2023-01-27T08:26:20.565Z,20.02
2023-01-27T08:28:47.307Z,16.20
2023-01-27T08:31:16.348Z,16.85
2023-01-27T08:33:45.344Z,16.70
2023-01-27T08:36:16.682Z,14.15
2023-01-27T08:38:44.588Z,13.40
2023-01-27T08:41:15.272Z,19.02
2023-01-27T08:43:42.440Z,24.85
2023-01-27T08:46:09.958Z,64.05
2023-01-27T08:48:37.760Z,52.30
2023-01-27T08:51:05.913Z,17.80
2023-01-27T08:53:33.148Z,14.75
2023-01-27T08:56:04.441Z,14.32
2023-01-27T08:58:31.100Z,13.60
2023-01-27T09:01:03.770Z,15.23
2023-01-27T09:03:32.105Z,12.88
2023-01-27T09:05:59.353Z,12.95
2023-01-27T09:08:27.016Z,14.55
2023-01-27T09:10:53.832Z,12.77
2023-01-27T09:13:22.315Z,16.50
2023-01-27T09:15:52.318Z,14.15
2023-01-27T09:18:19.311Z,13.23
2023-01-27T09:20:46.468Z,11.73
2023-01-27T09:23:13.180Z,12.68
2023-01-27T09:25:40.023Z,12.02
2023-01-27T09:28:09.872Z,13.50
2023-01-27T09:30:36.592Z,12.00
2023-01-27T09:33:03.422Z,13.48
2023-01-27T09:35:45.447Z,13.18
2023-01-27T09:38:16.978Z,10.93
2023-01-27T09:41:04.759Z,13.55
2023-01-27T09:43:31.435Z,11.68
2023-01-27T09:46:05.951Z,9.23
2023-01-27T09:48:51.210Z,10.40
2023-01-27T09:51:31.277Z,11.73
2023-01-27T09:54:15.477Z,10.48
2023-01-27T09:56:51.105Z,11.27
2023-01-27T09:59:45.681Z,9.57
2023-01-27T10:02:28.376Z,7.60
2023-01-27T10:04:57.882Z,9.85
2023-01-27T10:07:51.777Z,7.40
2023-01-27T10:10:48.549Z,7.33
2023-01-27T10:13:38.314Z,6.25
2023-01-27T10:16:29.454Z,6.95
2023-01-27T10:19:10.361Z,12.40
2023-01-27T10:22:30.308Z,4.60
2023-01-27T10:25:14.736Z,6.35
2023-01-27T10:27:48.625Z,4.88
2023-01-27T10:30:23.879Z,5.40
2023-01-27T10:33:14.757Z,5.80
2023-01-27T10:35:53.716Z,5.32
2023-01-27T10:38:29.522Z,4.78
2023-01-27T10:41:21.453Z,5.93
2023-01-27T10:43:50.074Z,4.40
2023-01-27T10:46:26.902Z,6.38
2023-01-27T10:49:10.309Z,3.90
2023-01-27T10:51:47.717Z,4.60
2023-01-27T10:54:32.043Z,6.22
2023-01-27T10:57:04.446Z,20.70
2023-01-27T10:59:34.053Z,14.25
2023-01-27T11:02:10.033Z,8.70
2023-01-27T11:04:47.004Z,5.10
2023-01-27T11:07:17.802Z,4.50
2023-01-27T11:10:01.013Z,3.33
2023-01-27T11:12:35.449Z,3.08
2023-01-27T11:15:24.883Z,4.40
2023-01-27T11:17:58.520Z,4.40
2023-01-27T11:20:27.971Z,5.63
2023-01-27T11:23:09.505Z,6.55
2023-01-27T11:25:55.142Z,3.25
2023-01-27T11:28:41.781Z,7.40
2023-01-27T11:31:45.568Z,11.30
2023-01-27T11:34:40.757Z,8.57
2023-01-27T11:37:21.081Z,5.05
2023-01-27T11:39:48.257Z,3.10
2023-01-27T11:42:16.095Z,4.28
2023-01-27T11:44:44.718Z,3.78
2023-01-27T11:47:26.834Z,4.38
2023-01-27T11:49:54.336Z,5.85
2023-01-27T11:52:26.883Z,5.82
2023-01-27T11:55:08.617Z,24.27
2023-01-27T11:57:41.313Z,43.92
2023-01-27T12:00:21.628Z,18.98
2023-01-27T12:02:55.896Z,21.05
2023-01-27T12:05:30.409Z,14.38
2023-01-27T12:08:00.337Z,10.43
2023-01-27T12:10:28.023Z,5.13
2023-01-27T12:12:55.774Z,8.00
2023-01-27T12:15:26.649Z,4.90
2023-01-27T12:18:11.941Z,10.13
2023-01-27T12:20:45.648Z,11.82
2023-01-27T12:23:25.884Z,10.13
2023-01-27T12:26:07.997Z,15.63
2023-01-27T12:28:40.058Z,15.93
2023-01-27T12:31:20.535Z,5.60
2023-01-27T12:33:58.326Z,6.68
2023-01-27T12:36:25.397Z,4.93
2023-01-27T12:38:54.729Z,3.47
2023-01-27T12:41:27.604Z,5.22
2023-01-27T12:44:18.192Z,5.85
2023-01-27T12:47:14.467Z,6.03
2023-01-27T12:49:44.521Z,6.32
2023-01-27T12:52:20.418Z,7.45
2023-01-27T12:54:47.545Z,5.70
2023-01-27T12:57:20.757Z,6.20
2023-01-27T12:59:58.538Z,4.83
2023-01-27T13:02:33.021Z,11.98
2023-01-27T13:05:04.958Z,8.50
2023-01-27T13:07:53.208Z,9.45
2023-01-27T13:10:23.023Z,4.93
2023-01-27T13:13:01.196Z,6.80
2023-01-27T13:15:31.935Z,5.10
2023-01-27T13:18:02.790Z,9.35
2023-01-27T13:20:42.861Z,6.72
2023-01-27T13:23:21.097Z,5.78
2023-01-27T13:25:54.543Z,7.57
2023-01-27T13:28:30.717Z,6.53
2023-01-27T13:31:08.907Z,7.93
2023-01-27T13:33:49.663Z,8.63
2023-01-27T13:36:31.440Z,4.32
2023-01-27T13:39:04.235Z,4.22
2023-01-27T13:41:43.546Z,9.43
2023-01-27T13:44:32.499Z,5.80
2023-01-27T13:47:06.277Z,6.18
2023-01-27T13:49:41.152Z,8.45
2023-01-27T13:52:08.213Z,6.47
2023-01-27T13:54:35.047Z,6.70
2023-01-27T13:57:56.232Z,6.85
2023-01-27T14:00:46.552Z,8.88
2023-01-27T14:03:25.660Z,4.78
2023-01-27T14:06:05.089Z,6.65
2023-01-27T14:08:41.187Z,28.80
2023-01-27T14:11:38.936Z,10.05
2023-01-27T14:14:14.415Z,16.40
2023-01-27T14:16:49.760Z,12.88
2023-01-27T14:20:02.090Z,15.68
2023-01-27T14:23:14.547Z,16.52
2023-01-27T14:25:52.592Z,20.02
2023-01-27T14:28:43.674Z,15.77
2023-01-27T14:31:19.006Z,9.85
2023-01-27T14:34:05.681Z,13.63
2023-01-27T14:36:47.068Z,12.10
2023-01-27T14:39:20.675Z,13.82
2023-01-27T14:41:50.399Z,9.95
2023-01-27T14:44:43.437Z,8.88
2023-01-27T14:47:33.306Z,28.17
2023-01-27T14:50:16.445Z,13.60
2023-01-27T14:52:57.132Z,11.48
2023-01-27T14:55:53.898Z,15.32
2023-01-27T14:59:04.741Z,9.70
2023-01-27T15:01:55.828Z,12.15
2023-01-27T15:04:28.530Z,13.27
2023-01-27T15:06:57.858Z,9.90
2023-01-27T15:09:37.733Z,10.10
2023-01-27T15:12:41.789Z,12.02
2023-01-27T15:15:26.963Z,8.85
2023-01-27T15:17:59.486Z,11.00
2023-01-27T15:21:03.350Z,11.55
2023-01-27T15:23:56.767Z,9.13
2023-01-27T15:26:26.936Z,11.95
2023-01-27T15:28:54.146Z,8.18
2023-01-27T15:31:28.826Z,6.30
2023-01-27T15:33:56.991Z,8.02
2023-01-27T15:36:32.612Z,6.43
2023-01-27T15:39:11.272Z,10.05
2023-01-27T15:42:03.108Z,9.63
2023-01-27T15:44:31.060Z,8.85
2023-01-27T15:47:26.259Z,9.80
2023-01-27T15:50:07.267Z,12.60
2023-01-27T15:52:45.823Z,8.27
2023-01-27T15:55:27.927Z,8.20
2023-01-27T15:58:09.747Z,10.80
2023-01-27T16:00:39.182Z,10.10
2023-01-27T16:03:30.683Z,12.65
2023-01-27T16:06:09.772Z,12.35
2023-01-27T16:08:43.986Z,8.52
2023-01-27T16:11:29.148Z,8.70
2023-01-27T16:14:19.757Z,7.60
2023-01-27T16:16:49.889Z,6.07
2023-01-27T16:19:22.069Z,8.00
2023-01-27T16:22:12.445Z,6.95
2023-01-27T16:24:48.332Z,7.68
2023-01-27T16:27:34.124Z,5.53
2023-01-27T16:30:25.346Z,6.15
2023-01-27T16:33:12.284Z,8.27
2023-01-27T16:35:49.045Z,6.90
2023-01-27T16:38:25.567Z,11.68
2023-01-27T16:40:59.114Z,7.90
2023-01-27T16:43:34.142Z,11.10
2023-01-27T16:46:02.045Z,7.22
2023-01-27T16:48:39.204Z,5.80
2023-01-27T16:51:27.222Z,6.75
2023-01-27T16:53:57.325Z,5.50
2023-01-27T16:56:27.914Z,7.25
2023-01-27T16:59:01.750Z,4.25
2023-01-27T17:01:37.578Z,6.47
2023-01-27T17:04:19.124Z,4.53
2023-01-27T17:06:47.172Z,5.20
2023-01-27T17:09:19.964Z,5.03
2023-01-27T17:11:46.845Z,5.32
2023-01-27T17:14:28.536Z,3.83
2023-01-27T17:16:59.360Z,5.32
2023-01-27T17:19:33.224Z,6.97
2023-01-27T17:22:02.670Z,2.70
2023-01-27T17:24:34.902Z,9.52
2023-01-27T17:27:28.977Z,4.93
2023-01-27T17:30:03.373Z,5.13
2023-01-27T17:32:37.593Z,4.20
2023-01-27T17:35:26.956Z,4.22
2023-01-27T17:38:07.536Z,4.22
2023-01-27T17:40:39.163Z,3.63
2023-01-27T17:43:32.200Z,5.25
2023-01-27T17:46:04.704Z,3.58
2023-01-27T17:48:38.553Z,8.60
2023-01-27T17:51:05.563Z,11.10
2023-01-27T17:53:35.329Z,3.20
2023-01-27T17:56:24.558Z,9.02
2023-01-27T17:58:55.706Z,5.63
2023-01-27T18:01:22.681Z,3.70
2023-01-27T18:03:55.042Z,3.45
2023-01-27T18:06:25.561Z,4.97
2023-01-27T18:08:55.629Z,3.55
2023-01-27T18:11:32.761Z,3.08
2023-01-27T18:14:14.121Z,6.40
2023-01-27T18:16:40.798Z,4.00
2023-01-27T18:19:27.844Z,4.15
2023-01-27T18:22:04.210Z,4.75
2023-01-27T18:24:31.355Z,6.57
2023-01-27T18:26:58.165Z,6.65
2023-01-27T18:29:36.211Z,4.00
2023-01-27T18:32:16.900Z,4.32
2023-01-27T18:34:52.367Z,14.18
2023-01-27T18:37:32.889Z,167.98
2023-01-27T18:40:01.688Z,113.30
2023-01-27T18:42:30.273Z,47.33
2023-01-27T18:44:57.621Z,21.35
2023-01-27T18:47:36.394Z,13.02
2023-01-27T18:50:12.073Z,10.48
2023-01-27T18:52:39.054Z,10.10
2023-01-27T18:55:24.331Z,4.70
2023-01-27T18:57:53.661Z,6.32
2023-01-27T19:00:31.287Z,4.90
2023-01-27T19:03:00.933Z,4.95
2023-01-27T19:05:35.664Z,7.47
2023-01-27T19:08:03.637Z,10.43
2023-01-27T19:10:33.502Z,4.28
2023-01-27T19:13:02.325Z,6.05
2023-01-27T19:15:35.026Z,8.77
2023-01-27T19:18:09.746Z,8.88
2023-01-27T19:20:36.593Z,9.13
2023-01-27T19:23:03.283Z,6.22
2023-01-27T19:25:31.334Z,6.47
2023-01-27T19:28:03.070Z,10.23
2023-01-27T19:30:35.948Z,7.75
2023-01-27T19:33:23.550Z,9.73
2023-01-27T19:36:00.603Z,6.78
2023-01-27T19:38:29.078Z,3.92
2023-01-27T19:40:56.019Z,7.57
2023-01-27T19:43:22.900Z,9.50
2023-01-27T19:45:50.930Z,5.72
2023-01-27T19:48:20.624Z,11.20
2023-01-27T19:50:48.068Z,6.25
2023-01-27T19:53:16.117Z,5.50
2023-01-27T19:55:43.556Z,6.50
2023-01-27T19:58:24.594Z,8.07
2023-01-27T20:00:52.242Z,5.55
2023-01-27T20:03:19.204Z,7.90
2023-01-27T20:05:46.165Z,4.85
2023-01-27T20:08:16.577Z,5.60
2023-01-27T20:10:43.934Z,10.63
2023-01-27T20:13:17.879Z,9.18
2023-01-27T20:15:45.113Z,5.65
2023-01-27T20:18:15.390Z,7.32
2023-01-27T20:20:44.089Z,5.90
2023-01-27T20:23:17.554Z,4.65
2023-01-27T20:25:44.275Z,7.55
2023-01-27T20:28:12.402Z,6.15
2023-01-27T20:30:39.205Z,8.02
2023-01-27T20:33:06.082Z,7.60
2023-01-27T20:35:33.076Z,6.40
2023-01-27T20:38:02.112Z,4.18
2023-01-27T20:40:30.298Z,9.57
2023-01-27T20:42:57.001Z,6.72
2023-01-27T20:45:23.802Z,8.63
2023-01-27T20:47:51.828Z,8.90
2023-01-27T20:50:19.737Z,9.45
2023-01-27T20:52:48.282Z,7.35
2023-01-27T20:55:16.354Z,8.18
2023-01-27T20:57:43.256Z,6.07
2023-01-27T21:00:21.092Z,7.78
2023-01-27T21:02:48.546Z,9.75
2023-01-27T21:05:15.800Z,8.65
2023-01-27T21:07:42.892Z,7.95
2023-01-27T21:10:10.261Z,7.90
2023-01-27T21:12:36.994Z,7.68
2023-01-27T21:15:09.641Z,9.02
2023-01-27T21:17:36.801Z,7.35
2023-01-27T21:20:04.235Z,9.45
2023-01-27T21:22:30.940Z,5.65
2023-01-27T21:24:57.589Z,8.02
2023-01-27T21:27:24.253Z,7.75
2023-01-27T21:29:52.673Z,9.77
2023-01-27T21:32:19.402Z,7.40
2023-01-27T21:34:46.040Z,7.60
2023-01-27T21:37:12.733Z,10.68
2023-01-27T21:39:39.396Z,8.02
2023-01-27T21:42:06.035Z,7.40
2023-01-27T21:44:51.467Z,7.38
2023-01-27T21:47:19.511Z,8.68
2023-01-27T21:50:02.516Z,7.32
2023-01-27T21:52:38.981Z,8.43
2023-01-27T21:55:08.731Z,6.53
2023-01-27T21:57:35.708Z,9.07
2023-01-27T22:00:05.225Z,8.23
2023-01-27T22:02:32.361Z,10.18
2023-01-27T22:04:59.152Z,7.47
2023-01-27T22:07:27.017Z,7.60
2023-01-27T22:09:53.727Z,6.50
2023-01-27T22:12:22.139Z,5.72
2023-01-27T22:14:49.273Z,8.40
2023-01-27T22:17:18.434Z,10.40
2023-01-27T22:19:46.377Z,8.45
2023-01-27T22:22:13.581Z,8.52
2023-01-27T22:24:40.720Z,8.13
2023-01-27T22:27:07.521Z,10.23
2023-01-27T22:29:34.173Z,8.73
2023-01-27T22:32:00.802Z,9.52
2023-01-27T22:34:27.522Z,7.25
2023-01-27T22:36:54.159Z,7.80
2023-01-27T22:39:20.881Z,7.65
2023-01-27T22:41:47.681Z,9.43
2023-01-27T22:44:14.817Z,5.97
2023-01-27T22:46:42.819Z,9.57
2023-01-27T22:49:10.415Z,6.78
2023-01-27T22:51:37.963Z,7.93
2023-01-27T22:54:04.853Z,8.65
2023-01-27T22:56:31.681Z,8.95
2023-01-27T22:58:58.423Z,7.55
2023-01-27T23:01:25.198Z,8.50
2023-01-27T23:03:51.869Z,9.13
2023-01-27T23:06:18.925Z,9.88
2023-01-27T23:08:45.595Z,6.85
2023-01-27T23:11:12.445Z,7.78
2023-01-27T23:13:39.229Z,6.40
2023-01-27T23:16:06.329Z,5.57
2023-01-27T23:18:33.192Z,5.53
2023-01-27T23:21:07.812Z,8.77
2023-01-27T23:23:35.725Z,7.45
2023-01-27T23:26:06.650Z,6.75
2023-01-27T23:28:33.405Z,5.75
2023-01-27T23:31:00.389Z,9.10
2023-01-27T23:33:30.067Z,12.60
2023-01-27T23:35:57.735Z,6.90
2023-01-27T23:38:32.544Z,8.75
2023-01-27T23:41:04.739Z,6.85
2023-01-27T23:43:31.687Z,9.32
2023-01-27T23:45:58.650Z,9.95
2023-01-27T23:48:25.987Z,9.32
2023-01-27T23:50:52.678Z,7.38
2023-01-27T23:53:20.496Z,8.05
2023-01-27T23:55:57.662Z,9.88
2023-01-27T23:58:25.067Z,9.80
